createdAt,value
2023-04-18T00:00:44.869Z,12.50
2023-04-18T00:03:15.889Z,12.20
2023-04-18T00:05:47.374Z,12.30
2023-04-18T00:08:14.957Z,11.93
2023-04-18T00:10:42.227Z,12.10
2023-04-18T00:13:10.290Z,11.53
2023-04-18T00:15:38.644Z,12.77
2023-04-18T00:18:06.344Z,11.17
2023-04-18T00:20:33.584Z,11.80
2023-04-18T00:23:01.964Z,12.23
2023-04-18T00:25:28.704Z,11.67
2023-04-18T00:27:55.438Z,11.87
2023-04-18T00:30:24.933Z,11.70
2023-04-18T00:32:51.781Z,11.77
2023-04-18T00:35:19.494Z,11.50
2023-04-18T00:37:47.277Z,11.70
2023-04-18T00:40:16.275Z,11.67
2023-04-18T00:42:44.547Z,11.90
2023-04-18T00:45:14.086Z,11.20
2023-04-18T00:47:41.055Z,12.10
2023-04-18T00:50:09.070Z,12.20
2023-04-18T00:52:37.085Z,11.73
2023-04-18T00:55:06.669Z,12.00
2023-04-18T00:57:35.110Z,11.27
2023-04-18T01:00:09.001Z,11.90
2023-04-18T01:02:36.565Z,11.90
2023-04-18T01:05:04.456Z,11.40
2023-04-18T01:07:36.221Z,12.03
2023-04-18T01:10:04.390Z,11.50
2023-04-18T01:12:31.346Z,11.57
2023-04-18T01:15:00.756Z,10.87
2023-04-18T01:17:29.525Z,10.83
2023-04-18T01:19:57.001Z,11.63
2023-04-18T01:22:24.730Z,10.83
2023-04-18T01:24:51.512Z,10.47
2023-04-18T01:27:18.294Z,10.43
2023-04-18T01:29:45.690Z,10.53
2023-04-18T01:32:14.151Z,10.63
2023-04-18T01:34:41.525Z,9.57
2023-04-18T01:37:08.452Z,9.97
2023-04-18T01:39:35.365Z,10.10
2023-04-18T01:42:02.204Z,10.10
2023-04-18T01:44:29.038Z,9.27
2023-04-18T01:46:55.921Z,9.47
2023-04-18T01:49:22.720Z,9.30
2023-04-18T01:51:49.726Z,9.30
2023-04-18T01:54:16.838Z,9.57
2023-04-18T01:56:43.790Z,9.63
2023-04-18T01:59:10.561Z,8.93
2023-04-18T02:01:38.625Z,8.60
2023-04-18T02:04:06.535Z,9.00
2023-04-18T02:06:33.430Z,8.77
2023-04-18T02:09:00.575Z,8.77
2023-04-18T02:11:27.665Z,7.33
2023-04-18T02:13:54.980Z,8.17
2023-04-18T02:16:21.989Z,8.20
2023-04-18T02:18:49.808Z,9.67
2023-04-18T02:21:16.688Z,8.20
2023-04-18T02:23:43.595Z,8.27
2023-04-18T02:26:10.884Z,7.67
2023-04-18T02:28:39.269Z,8.07
2023-04-18T02:31:07.346Z,7.87
2023-04-18T02:33:34.450Z,7.63
2023-04-18T02:36:02.261Z,7.40
2023-04-18T02:38:29.057Z,7.30
2023-04-18T02:40:57.200Z,7.90
2023-04-18T02:43:24.744Z,7.73
2023-04-18T02:45:52.682Z,7.90
2023-04-18T02:48:20.275Z,6.53
2023-04-18T02:50:48.170Z,6.20
2023-04-18T02:53:15.527Z,6.77
2023-04-18T02:55:51.008Z,7.30
2023-04-18T02:58:19.185Z,6.90
2023-04-18T03:01:16.915Z,7.33
2023-04-18T03:04:12.957Z,8.20
2023-04-18T03:06:44.112Z,7.87
2023-04-18T03:09:11.699Z,8.80
2023-04-18T03:11:44.471Z,9.77
2023-04-18T03:14:12.012Z,8.67
2023-04-18T03:16:48.980Z,8.30
2023-04-18T03:19:20.289Z,9.03
2023-04-18T03:21:47.001Z,8.47
2023-04-18T03:24:14.155Z,7.83
2023-04-18T03:26:43.677Z,8.30
2023-04-18T03:29:10.830Z,7.73
2023-04-18T03:31:39.293Z,7.33
2023-04-18T03:34:06.120Z,6.83
2023-04-18T03:36:33.564Z,6.63
2023-04-18T03:39:01.108Z,6.67
2023-04-18T03:41:28.271Z,6.57
2023-04-18T03:43:57.580Z,6.00
2023-04-18T03:46:24.705Z,6.80
2023-04-18T03:48:54.111Z,7.33
2023-04-18T03:51:21.535Z,9.07
2023-04-18T03:53:48.280Z,7.83
2023-04-18T03:56:16.795Z,6.60
2023-04-18T03:58:49.946Z,6.60
2023-04-18T04:01:18.362Z,6.53
2023-04-18T04:03:45.480Z,6.80
2023-04-18T04:06:12.822Z,6.73
2023-04-18T04:08:39.560Z,6.43
2023-04-18T04:11:06.425Z,6.63
2023-04-18T04:13:33.403Z,5.80
2023-04-18T04:16:00.309Z,7.37
2023-04-18T04:18:31.180Z,5.67
2023-04-18T04:21:00.849Z,5.60
2023-04-18T04:23:49.952Z,5.27
2023-04-18T04:26:31.783Z,6.80
2023-04-18T04:29:03.824Z,6.33
2023-04-18T04:31:33.198Z,5.50
2023-04-18T04:34:00.585Z,5.57
2023-04-18T04:36:29.590Z,5.20
2023-04-18T04:38:59.946Z,5.47
2023-04-18T04:41:49.876Z,5.27
2023-04-18T04:44:19.016Z,5.33
2023-04-18T04:46:45.906Z,5.33
2023-04-18T04:49:18.910Z,5.77
2023-04-18T04:51:45.834Z,6.17
2023-04-18T04:54:12.805Z,4.90
2023-04-18T04:56:40.000Z,5.10
2023-04-18T04:59:07.611Z,5.03
2023-04-18T05:01:39.106Z,5.13
2023-04-18T05:04:06.060Z,5.10
2023-04-18T05:06:32.957Z,4.77
2023-04-18T05:09:01.026Z,4.47
2023-04-18T05:11:27.859Z,4.77
2023-04-18T05:13:54.852Z,4.40
2023-04-18T05:16:21.651Z,4.90
2023-04-18T05:18:48.557Z,4.07
2023-04-18T05:21:15.405Z,4.30
2023-04-18T05:23:42.212Z,3.77
2023-04-18T05:26:08.944Z,6.80
2023-04-18T05:28:35.754Z,3.70
2023-04-18T05:31:02.564Z,3.57
2023-04-18T05:33:32.733Z,4.87
2023-04-18T05:35:59.775Z,3.93
2023-04-18T05:38:26.589Z,4.73
2023-04-18T05:40:55.537Z,4.47
2023-04-18T05:43:22.893Z,4.73
2023-04-18T05:45:52.282Z,4.50
2023-04-18T05:48:19.434Z,4.43
2023-04-18T05:50:46.159Z,4.30
2023-04-18T05:53:13.018Z,4.40
2023-04-18T05:55:41.061Z,4.40
2023-04-18T05:58:08.247Z,4.17
2023-04-18T06:00:35.246Z,5.07
2023-04-18T06:03:02.215Z,4.40
2023-04-18T06:05:30.737Z,4.50
2023-04-18T06:07:57.585Z,4.20
2023-04-18T06:10:24.363Z,4.10
2023-04-18T06:12:51.043Z,4.20
2023-04-18T06:15:18.048Z,4.10
2023-04-18T06:17:44.902Z,5.60
2023-04-18T06:20:11.737Z,4.20
2023-04-18T06:22:38.476Z,4.57
2023-04-18T06:25:05.715Z,4.70
2023-04-18T06:27:33.734Z,4.40
2023-04-18T06:30:00.470Z,3.90
2023-04-18T06:32:27.257Z,4.57
2023-04-18T06:34:54.074Z,4.47
2023-04-18T06:37:20.946Z,4.50
2023-04-18T06:39:47.739Z,4.90
2023-04-18T06:42:15.728Z,4.40
2023-04-18T06:44:44.817Z,4.17
2023-04-18T06:47:11.687Z,4.63
2023-04-18T06:49:38.574Z,4.63
2023-04-18T06:52:05.345Z,5.37
2023-04-18T06:54:32.061Z,4.23
2023-04-18T06:56:59.267Z,3.90
2023-04-18T06:59:27.034Z,4.27
2023-04-18T07:01:58.143Z,3.90
2023-04-18T07:04:25.313Z,4.27
2023-04-18T07:06:52.909Z,4.50
2023-04-18T07:09:20.163Z,3.60
2023-04-18T07:11:46.864Z,3.70
2023-04-18T07:14:14.369Z,3.57
2023-04-18T07:16:41.535Z,3.50
2023-04-18T07:19:08.442Z,5.27
2023-04-18T07:21:35.083Z,4.53
2023-04-18T07:24:02.061Z,4.00
2023-04-18T07:26:29.222Z,4.47
2023-04-18T07:28:56.084Z,3.70
2023-04-18T07:31:22.959Z,3.80
2023-04-18T07:33:49.626Z,4.67
2023-04-18T07:36:17.398Z,4.33
2023-04-18T07:38:44.587Z,3.80
2023-04-18T07:41:11.350Z,3.23
2023-04-18T07:43:38.883Z,3.67
2023-04-18T07:46:06.438Z,2.87
2023-04-18T07:48:33.601Z,2.70
2023-04-18T07:51:01.349Z,3.07
2023-04-18T07:53:29.097Z,3.20
2023-04-18T07:55:56.070Z,3.07
2023-04-18T07:58:24.450Z,2.97
2023-04-18T08:00:51.257Z,3.10
2023-04-18T08:03:18.034Z,3.10
2023-04-18T08:05:44.893Z,3.40
2023-04-18T08:08:12.657Z,2.50
2023-04-18T08:10:40.272Z,2.53
2023-04-18T08:13:08.195Z,2.60
2023-04-18T08:15:35.219Z,2.70
2023-04-18T08:18:02.225Z,2.60
2023-04-18T08:20:29.028Z,3.77
2023-04-18T08:25:25.432Z,3.10
2023-04-18T08:27:53.185Z,3.50
2023-04-18T08:30:19.977Z,3.30
2023-04-18T08:32:46.581Z,3.67
2023-04-18T08:35:13.268Z,7.53
2023-04-18T08:37:39.872Z,4.03
2023-04-18T08:40:07.486Z,3.73
2023-04-18T08:42:34.649Z,3.53
2023-04-18T08:45:01.373Z,3.97
2023-04-18T08:47:31.243Z,4.07
2023-04-18T08:49:59.364Z,4.50
2023-04-18T08:52:27.252Z,4.20
2023-04-18T08:54:53.913Z,4.47
2023-04-18T08:57:31.028Z,7.57
2023-04-18T09:00:00.671Z,4.47
2023-04-18T09:02:42.512Z,4.20
2023-04-18T09:05:16.683Z,5.17
2023-04-18T09:07:43.306Z,4.90
2023-04-18T09:10:10.426Z,4.73
2023-04-18T09:12:49.967Z,4.93
2023-04-18T09:15:20.241Z,5.17
2023-04-18T09:17:50.967Z,5.20
2023-04-18T09:20:30.811Z,5.00
2023-04-18T09:23:00.779Z,5.13
2023-04-18T09:25:40.126Z,4.57
2023-04-18T09:28:24.721Z,4.90
2023-04-18T09:30:52.688Z,4.63
2023-04-18T09:33:28.952Z,4.97
2023-04-18T09:35:56.736Z,5.37
2023-04-18T09:38:40.298Z,5.20
2023-04-18T09:41:09.036Z,5.60
2023-04-18T09:43:35.757Z,5.53
2023-04-18T09:46:04.156Z,5.80
2023-04-18T09:48:31.177Z,5.80
2023-04-18T09:50:59.692Z,6.43
2023-04-18T09:53:26.845Z,5.67
2023-04-18T09:55:56.237Z,6.00
2023-04-18T09:58:25.919Z,5.87
2023-04-18T10:00:54.015Z,6.30
2023-04-18T10:03:24.036Z,5.83
2023-04-18T10:05:51.219Z,6.40
2023-04-18T10:08:18.220Z,5.97
2023-04-18T10:10:44.799Z,6.27
2023-04-18T10:13:11.947Z,5.60
2023-04-18T10:15:38.823Z,6.27
2023-04-18T10:18:18.436Z,6.30
2023-04-18T10:20:46.888Z,5.43
2023-04-18T10:23:31.935Z,5.73
2023-04-18T10:25:59.167Z,5.43
2023-04-18T10:28:27.451Z,6.00
2023-04-18T10:30:54.979Z,5.47
2023-04-18T10:33:30.419Z,5.37
2023-04-18T10:35:58.199Z,5.30
2023-04-18T10:38:25.102Z,5.47
2023-04-18T10:40:51.836Z,5.50
2023-04-18T10:43:18.504Z,6.00
2023-04-18T10:45:45.120Z,5.30
2023-04-18T10:48:30.076Z,5.20
2023-04-18T10:51:16.986Z,6.90
2023-04-18T10:53:52.536Z,5.53
2023-04-18T10:56:19.248Z,6.23
2023-04-18T10:58:51.597Z,5.60
2023-04-18T11:01:31.656Z,5.30
2023-04-18T11:04:00.156Z,5.20
2023-04-18T11:06:27.675Z,5.67
2023-04-18T11:09:14.530Z,5.53
2023-04-18T11:11:41.811Z,6.07
2023-04-18T11:14:08.572Z,5.83
2023-04-18T11:16:35.642Z,6.37
2023-04-18T11:19:19.550Z,6.13
2023-04-18T11:21:46.224Z,5.70
2023-04-18T11:24:21.625Z,5.73
2023-04-18T11:26:48.265Z,5.40
2023-04-18T11:29:17.520Z,7.03
2023-04-18T11:31:51.408Z,6.17
2023-04-18T11:34:18.083Z,6.57
2023-04-18T11:36:51.395Z,6.93
2023-04-18T11:39:19.049Z,7.10
2023-04-18T11:41:50.491Z,6.90
2023-04-18T11:44:18.552Z,6.97
2023-04-18T11:46:47.626Z,6.10
2023-04-18T11:49:33.179Z,6.57
2023-04-18T11:52:01.045Z,6.30
2023-04-18T11:54:40.642Z,6.57
2023-04-18T11:57:19.463Z,6.83
2023-04-18T11:59:57.356Z,6.77
2023-04-18T12:02:26.556Z,6.70
2023-04-18T12:04:54.463Z,6.17
2023-04-18T12:07:40.835Z,8.00
2023-04-18T12:10:08.705Z,10.07
2023-04-18T12:12:36.175Z,6.47
2023-04-18T12:15:08.848Z,8.83
2023-04-18T12:17:36.995Z,8.57
2023-04-18T12:20:10.282Z,7.13
2023-04-18T12:22:42.269Z,7.37
2023-04-18T12:25:20.219Z,10.10
2023-04-18T12:27:58.391Z,7.60
2023-04-18T12:30:37.333Z,6.97
2023-04-18T12:33:04.906Z,7.17
2023-04-18T12:35:32.401Z,7.50
2023-04-18T12:38:00.649Z,7.03
2023-04-18T12:40:27.633Z,6.97
2023-04-18T12:42:54.886Z,6.63
2023-04-18T12:45:23.266Z,6.43
2023-04-18T12:47:51.532Z,6.30
2023-04-18T12:50:26.035Z,6.80
2023-04-18T12:52:54.016Z,7.33
2023-04-18T12:55:21.678Z,7.17
2023-04-18T12:57:54.080Z,6.60
2023-04-18T13:00:23.278Z,6.37
2023-04-18T13:02:50.556Z,7.40
2023-04-18T13:05:18.903Z,6.70
2023-04-18T13:07:48.298Z,6.37
2023-04-18T13:10:17.942Z,6.43
2023-04-18T13:12:45.075Z,6.07
2023-04-18T13:15:11.973Z,6.70
2023-04-18T13:17:39.490Z,6.53
2023-04-18T13:20:08.534Z,5.77
2023-04-18T13:22:35.323Z,6.57
2023-04-18T13:25:02.096Z,6.57
2023-04-18T13:27:29.123Z,5.93
2023-04-18T13:29:56.183Z,6.90
2023-04-18T13:32:22.854Z,5.93
2023-04-18T13:34:49.566Z,6.03
2023-04-18T13:37:16.238Z,6.00
2023-04-18T13:39:43.098Z,5.87
2023-04-18T13:42:09.991Z,6.20
2023-04-18T13:44:37.552Z,5.93
2023-04-18T13:47:05.490Z,6.27
2023-04-18T13:49:33.051Z,6.20
2023-04-18T13:52:00.002Z,5.40
2023-04-18T13:54:27.997Z,7.07
2023-04-18T13:56:55.193Z,5.20
2023-04-18T13:59:21.784Z,5.13
2023-04-18T14:01:49.212Z,4.73
2023-04-18T14:04:16.834Z,4.67
2023-04-18T14:06:43.611Z,5.30
2023-04-18T14:09:10.336Z,5.00
2023-04-18T14:11:37.019Z,4.50
2023-04-18T14:14:03.732Z,5.10
2023-04-18T14:16:32.580Z,4.73
2023-04-18T14:19:00.607Z,5.07
2023-04-18T14:21:27.765Z,4.60
2023-04-18T14:23:55.147Z,4.90
2023-04-18T14:26:22.322Z,4.70
2023-04-18T14:28:48.998Z,5.03
2023-04-18T14:31:16.257Z,5.00
2023-04-18T14:33:43.171Z,4.57
2023-04-18T14:36:09.847Z,6.37
2023-04-18T14:38:36.688Z,4.60
2023-04-18T14:41:06.600Z,4.60
2023-04-18T14:43:33.371Z,4.60
2023-04-18T14:46:00.138Z,4.70
2023-04-18T14:48:27.653Z,4.47
2023-04-18T14:50:58.342Z,6.50
2023-04-18T14:53:27.134Z,4.90
2023-04-18T14:55:53.731Z,4.90
2023-04-18T14:58:20.627Z,4.70
2023-04-18T15:00:47.358Z,5.40
2023-04-18T15:03:14.601Z,4.30
2023-04-18T15:05:45.007Z,4.40
2023-04-18T15:08:11.631Z,4.40
2023-04-18T15:10:40.181Z,4.53
2023-04-18T15:13:06.781Z,4.30
2023-04-18T15:15:37.713Z,4.60
2023-04-18T15:18:04.796Z,4.30
2023-04-18T15:20:31.411Z,4.80
2023-04-18T15:22:58.027Z,4.73
2023-04-18T15:25:26.086Z,4.40
2023-04-18T15:27:52.990Z,4.87
2023-04-18T15:30:19.815Z,4.60
2023-04-18T15:32:48.337Z,4.20
2023-04-18T15:35:15.236Z,4.30
2023-04-18T15:37:42.081Z,4.13
2023-04-18T15:40:11.185Z,4.33
2023-04-18T15:42:37.751Z,3.87
2023-04-18T15:45:04.756Z,4.20
2023-04-18T15:47:33.941Z,4.00
2023-04-18T15:50:00.920Z,4.73
2023-04-18T15:52:27.543Z,4.70
2023-04-18T15:54:54.566Z,4.37
2023-04-18T15:57:21.805Z,3.90
2023-04-18T15:59:48.414Z,4.70
2023-04-18T16:02:15.118Z,4.07
2023-04-18T16:04:41.768Z,4.77
2023-04-18T16:07:08.857Z,3.80
2023-04-18T16:09:35.752Z,4.10
2023-04-18T16:12:03.285Z,4.00
2023-04-18T16:14:31.206Z,4.40
2023-04-18T16:16:59.085Z,4.40
2023-04-18T16:19:26.516Z,4.20
2023-04-18T16:21:53.065Z,4.50
2023-04-18T16:24:19.665Z,4.30
2023-04-18T16:26:46.404Z,4.30
2023-04-18T16:29:12.993Z,4.57
2023-04-18T16:31:39.698Z,4.77
2023-04-18T16:34:06.448Z,5.07
2023-04-18T16:36:34.706Z,5.03
2023-04-18T16:39:01.710Z,5.23
2023-04-18T16:41:28.278Z,5.60
2023-04-18T16:43:54.930Z,5.17
2023-04-18T16:46:21.535Z,5.60
2023-04-18T16:48:49.034Z,5.73
2023-04-18T16:51:17.070Z,5.63
2023-04-18T16:53:44.590Z,5.90
2023-04-18T16:56:11.213Z,6.03
2023-04-18T16:58:37.845Z,5.90
2023-04-18T17:01:04.434Z,6.37
2023-04-18T17:03:31.094Z,6.40
2023-04-18T17:05:57.754Z,7.13
2023-04-18T17:08:25.828Z,7.07
2023-04-18T17:10:52.913Z,8.93
2023-04-18T17:13:19.530Z,7.73
2023-04-18T17:15:46.239Z,7.53
2023-04-18T17:18:12.876Z,7.50
2023-04-18T17:20:39.554Z,7.53
2023-04-18T17:23:06.114Z,6.60
2023-04-18T17:25:32.711Z,7.17
2023-04-18T17:28:02.106Z,6.93
2023-04-18T17:30:29.316Z,6.53
2023-04-18T17:32:56.176Z,6.77
2023-04-18T17:35:22.840Z,6.20
2023-04-18T17:37:50.183Z,6.10
2023-04-18T17:40:16.843Z,6.93
2023-04-18T17:42:43.460Z,6.83
2023-04-18T17:45:10.713Z,6.63
2023-04-18T17:47:37.461Z,6.47
2023-04-18T17:50:04.770Z,6.43
2023-04-18T17:52:31.809Z,6.00
2023-04-18T17:54:59.119Z,6.93
2023-04-18T17:57:26.655Z,6.40
2023-04-18T17:59:55.600Z,6.87
2023-04-18T18:02:23.533Z,6.97
2023-04-18T18:04:51.453Z,7.37
2023-04-18T18:07:18.391Z,6.90
2023-04-18T18:09:48.116Z,6.60
2023-04-18T18:12:14.737Z,6.97
2023-04-18T18:14:41.469Z,6.23
2023-04-18T18:17:08.149Z,6.60
2023-04-18T18:19:36.309Z,6.67
2023-04-18T18:22:04.254Z,6.50
2023-04-18T18:24:31.047Z,6.73
2023-04-18T18:26:59.173Z,7.40
2023-04-18T18:29:26.053Z,7.10
2023-04-18T18:31:52.689Z,6.90
2023-04-18T18:34:21.168Z,6.70
2023-04-18T18:36:47.818Z,7.10
2023-04-18T18:39:16.432Z,7.23
2023-04-18T18:41:43.387Z,7.50
2023-04-18T18:44:11.649Z,7.60
2023-04-18T18:46:38.338Z,7.07
2023-04-18T18:49:05.150Z,7.33
2023-04-18T18:51:32.670Z,8.20
2023-04-18T18:53:59.330Z,8.03
2023-04-18T18:56:26.067Z,8.57
2023-04-18T18:58:55.895Z,8.90
2023-04-18T19:01:23.069Z,9.67
2023-04-18T19:03:50.134Z,9.00
2023-04-18T19:06:19.773Z,9.20
2023-04-18T19:08:46.630Z,9.03
2023-04-18T19:11:13.243Z,8.97
2023-04-18T19:13:39.923Z,9.73
2023-04-18T19:16:07.219Z,9.07
2023-04-18T19:18:34.318Z,9.20
2023-04-18T19:21:01.200Z,9.33
2023-04-18T19:23:27.885Z,9.37
2023-04-18T19:25:56.082Z,8.63
2023-04-18T19:28:23.159Z,9.37
2023-04-18T19:30:50.342Z,8.87
2023-04-18T19:33:20.374Z,9.00
2023-04-18T19:35:47.038Z,9.50
2023-04-18T19:38:13.667Z,9.67
2023-04-18T19:40:40.579Z,9.17
2023-04-18T19:43:07.190Z,9.13
2023-04-18T19:45:33.984Z,9.07
2023-04-18T19:48:00.736Z,9.93
2023-04-18T19:50:28.395Z,8.60
2023-04-18T19:52:55.006Z,8.87
2023-04-18T19:55:22.166Z,8.90
2023-04-18T19:57:54.420Z,9.33
2023-04-18T20:00:21.747Z,9.03
2023-04-18T20:02:50.155Z,8.80
2023-04-18T20:05:18.612Z,8.43
2023-04-18T20:07:46.692Z,9.17
2023-04-18T20:10:13.414Z,9.13
2023-04-18T20:12:40.020Z,9.20
2023-04-18T20:15:07.531Z,9.27
2023-04-18T20:17:34.732Z,9.17
2023-04-18T20:20:01.764Z,9.07
2023-04-18T20:22:28.426Z,8.77
2023-04-18T20:24:57.289Z,8.77
2023-04-18T20:27:24.142Z,8.90
2023-04-18T20:29:50.855Z,8.37
2023-04-18T20:32:17.505Z,12.20
2023-04-18T20:34:45.762Z,9.37
2023-04-18T20:37:16.030Z,8.67
2023-04-18T20:39:42.755Z,9.63
2023-04-18T20:42:14.350Z,9.80
2023-04-18T20:44:43.288Z,9.23
2023-04-18T20:47:09.930Z,9.57
2023-04-18T20:49:36.766Z,8.93
2023-04-18T20:52:05.394Z,9.10
2023-04-18T20:54:32.091Z,9.27
2023-04-18T20:56:58.677Z,9.13
2023-04-18T20:59:25.581Z,8.77
2023-04-18T21:01:53.811Z,9.20
2023-04-18T21:04:21.023Z,10.20
2023-04-18T21:06:47.725Z,9.60
2023-04-18T21:09:14.844Z,9.13
2023-04-18T21:11:41.668Z,9.20
2023-04-18T21:14:08.348Z,9.97
2023-04-18T21:16:35.984Z,9.00
2023-04-18T21:19:02.671Z,9.10
2023-04-18T21:21:29.933Z,8.80
2023-04-18T21:23:56.581Z,9.63
2023-04-18T21:26:23.212Z,9.07
2023-04-18T21:28:57.254Z,9.07
2023-04-18T21:31:25.256Z,8.77
2023-04-18T21:33:56.551Z,8.47
2023-04-18T21:36:26.507Z,9.53
2023-04-18T21:38:54.751Z,9.40
2023-04-18T21:41:23.516Z,9.90
2023-04-18T21:43:50.639Z,9.50
2023-04-18T21:46:19.530Z,9.43
2023-04-18T21:48:47.244Z,9.60
2023-04-18T21:51:15.691Z,9.03
2023-04-18T21:53:42.517Z,9.17
2023-04-18T21:56:09.193Z,9.20
2023-04-18T21:58:35.855Z,8.33
2023-04-18T22:01:02.709Z,9.27
2023-04-18T22:03:29.992Z,9.23
2023-04-18T22:05:57.552Z,8.80
2023-04-18T22:08:25.895Z,8.90
2023-04-18T22:10:58.270Z,9.37
2023-04-18T22:13:29.999Z,9.20
2023-04-18T22:15:58.246Z,9.10
2023-04-18T22:18:25.175Z,8.40
2023-04-18T22:20:53.801Z,9.23
2023-04-18T22:23:20.680Z,8.70
2023-04-18T22:25:47.927Z,9.23
2023-04-18T22:28:14.611Z,8.70
2023-04-18T22:30:41.631Z,9.43
2023-04-18T22:33:08.364Z,8.97
2023-04-18T22:35:35.372Z,9.23
2023-04-18T22:38:02.301Z,9.63
2023-04-18T22:40:32.131Z,10.03
2023-04-18T22:42:59.078Z,10.60
2023-04-18T22:45:25.917Z,9.77
2023-04-18T22:47:53.107Z,9.80
2023-04-18T22:50:20.031Z,9.43
2023-04-18T22:52:46.649Z,10.43
2023-04-18T22:55:16.382Z,9.70
2023-04-18T22:57:42.983Z,9.33
2023-04-18T23:00:10.218Z,9.17
2023-04-18T23:02:37.187Z,9.87
2023-04-18T23:05:05.821Z,9.63
2023-04-18T23:07:32.410Z,9.43
2023-04-18T23:09:59.017Z,10.53
2023-04-18T23:12:26.805Z,9.43
2023-04-18T23:14:53.385Z,10.73
2023-04-18T23:17:20.385Z,9.97
2023-04-18T23:19:47.066Z,9.27
2023-04-18T23:22:13.615Z,9.50
2023-04-18T23:24:40.320Z,10.00
2023-04-18T23:27:07.004Z,9.30
2023-04-18T23:29:37.810Z,9.63
2023-04-18T23:32:05.108Z,9.60
2023-04-18T23:34:32.251Z,9.77
2023-04-18T23:36:59.133Z,9.90
2023-04-18T23:39:26.447Z,10.10
2023-04-18T23:41:53.036Z,10.53
2023-04-18T23:44:19.605Z,10.60
2023-04-18T23:46:47.155Z,10.03
2023-04-18T23:49:14.037Z,9.87
2023-04-18T23:51:40.708Z,10.47
2023-04-18T23:54:07.641Z,10.50
2023-04-18T23:56:34.745Z,9.93
2023-04-18T23:59:01.591Z,10.33
